Iblea — A8JR2 — position and weather

sailwx.info

Track history (hours):
 
Tides and Currents Weather Stations Pressure Air Temp Water Temp Dewpoint Dewpoint Depression Visibility Wind Speed Wind Dir Waves Ship Positions

Iblea

Last reported at 2018-Jan-12 00:58 UTC. Time now 2018-Jan-19 15:18 UTC.
Position N 01°21' E 103°33'.

Length 240 m; draft 13.5 m.

Type: Ship. MMSI: 636091121.

Date/timePositionNaut miles runAvg speedWind from/ knotsBaromVisibWave heightAir tempDewpointWater temp
2018-Jan-12 00:58N 01°21' E 103°33'0 0.0
2018-Jan-12 00:04N 01°21' E 103°33'0 0.0
2018-Jan-11 23:45N 01°21' E 103°33'0 0.0
2018-Jan-11 23:30N 01°21' E 103°33'1 1.6
2018-Jan-11 22:59N 01°20' E 103°33'2 5.2
2018-Jan-11 22:30N 01°18' E 103°33'4 7.8
2018-Jan-11 21:59N 01°14' E 103°32'2 3.1
2018-Jan-11 21:30N 01°14' E 103°30'2 3.6
2018-Jan-11 20:57N 01°14' E 103°28'2 3.4
2018-Jan-11 20:30N 01°15' E 103°27'0 0.1
2018-Jan-11 19:42N 01°15' E 103°27'0 0.0
2018-Jan-11 19:12N 01°15' E 103°27'0 0.0
2018-Jan-11 18:48N 01°15' E 103°27'0 0.0
2018-Jan-11 18:24N 01°15' E 103°27'0 0.0
2018-Jan-11 17:33N 01°15' E 103°27'0 0.0
2018-Jan-11 17:27N 01°15' E 103°27'0 0.0
2018-Jan-11 17:00N 01°15' E 103°27'0 0.0
2018-Jan-11 15:45N 01°15' E 103°27'0 0.2
2018-Jan-11 14:45N 01°15' E 103°27'0 0.1
2018-Jan-11 14:18N 01°15' E 103°27'0 0.0
2018-Jan-11 10:15N 01°15' E 103°27'0 0.2
2018-Jan-11 09:54N 01°15' E 103°27'0 0.1
2018-Jan-11 09:30N 01°15' E 103°27'0 0.0
2018-Jan-11 08:30N 01°15' E 103°27'0 0.0
2018-Jan-11 08:00N 01°15' E 103°27'0 0.0
2018-Jan-11 07:24N 01°15' E 103°27'0 0.0
2018-Jan-11 06:54N 01°15' E 103°27'0 0.0
2018-Jan-11 06:18N 01°15' E 103°27'0 0.0
2018-Jan-11 05:54N 01°15' E 103°27'0 0.0
2018-Jan-11 05:09N 01°15' E 103°27'0 0.0
2018-Jan-11 04:57N 01°15' E 103°27'0 0.1
2018-Jan-11 04:27N 01°15' E 103°27'0 0.3
2018-Jan-11 03:57N 01°15' E 103°27'0 0.0
2018-Jan-10 17:50N 01°15' E 103°27'0 0.0
2018-Jan-10 17:26N 01°15' E 103°27'0 0.0
2018-Jan-10 16:56N 01°15' E 103°27'0 0.0
2018-Jan-10 16:23N 01°15' E 103°27'0 0.0
2018-Jan-10 15:56N 01°15' E 103°27'0 0.0
2018-Jan-10 15:26N 01°15' E 103°27'0 0.0
2018-Jan-10 14:50N 01°15' E 103°27'0 0.0
2018-Jan-10 14:29N 01°15' E 103°27'0 0.0
2018-Jan-10 13:56N 01°15' E 103°27'0 0.0
2018-Jan-10 12:50N 01°15' E 103°27'0 0.0
2018-Jan-10 12:20N 01°15' E 103°27'0 0.0
2018-Jan-10 11:56N 01°15' E 103°27'0 0.0
2018-Jan-10 11:23N 01°15' E 103°27'0 0.0
2018-Jan-10 10:53N 01°15' E 103°27'0 0.0
2018-Jan-10 10:17N 01°15' E 103°27'0 0.0
2018-Jan-10 09:56N 01°15' E 103°27'0 0.0
2018-Jan-10 09:29N 01°15' E 103°27'0 0.0
2018-Jan-10 08:44N 01°15' E 103°27'0 0.0
2018-Jan-10 08:08N 01°15' E 103°27'0 0.0
2018-Jan-10 06:35N 01°15' E 103°27'0 0.0
2018-Jan-10 06:11N 01°15' E 103°27'0 0.0
2018-Jan-10 05:59N 01°15' E 103°27'0 0.0
2018-Jan-10 03:44N 01°15' E 103°27'0 0.0
2018-Jan-10 03:20N 01°15' E 103°27'0 0.1
2018-Jan-10 02:53N 01°15' E 103°27'0 0.2
2018-Jan-10 02:14N 01°15' E 103°27'0 0.3
2018-Jan-10 01:59N 01°15' E 103°27'0 0.2
2018-Jan-10 01:14N 01°15' E 103°27'0 0.0
2018-Jan-10 00:59N 01°15' E 103°27'0 0.0
2018-Jan-10 00:29N 01°15' E 103°27'0 0.0
2018-Jan-09 23:59N 01°15' E 103°27'0 0.0
2018-Jan-09 23:23N 01°15' E 103°27'0 0.0
2018-Jan-09 22:47N 01°15' E 103°27'0 0.0
2018-Jan-09 22:02N 01°15' E 103°27'0 0.2
2018-Jan-09 21:41N 01°15' E 103°27'0 0.1
2018-Jan-09 19:23N 01°15' E 103°27'0 0.2
2018-Jan-09 18:58N 01°15' E 103°27'2 5.0
2018-Jan-09 18:29N 01°13' E 103°29'4 6.8
2018-Jan-09 17:57N 01°11' E 103°27'4 8.4
2018-Jan-09 17:28N 01°13' E 103°23'4 8.9
2018-Jan-09 17:00N 01°15' E 103°20'  
Track history (hours):
 
Tides and Currents Weather Stations Pressure Air Temp Water Temp Dewpoint Dewpoint Depression Visibility Wind Speed Wind Dir Waves Ship Positions

Iblea

Last reported at 2018-Jan-12 00:58 UTC. Time now 2018-Jan-19 15:18 UTC.
Position N 01°21' E 103°33'.

Length 240 m; draft 13.5 m.

Type: Ship. MMSI: 636091121.

Date/timePositionNaut miles runAvg speedWind from/ knotsBaromVisibWave heightAir tempDewpointWater temp
2018-Jan-12 00:58N 01°21' E 103°33'0 0.0
2018-Jan-12 00:04N 01°21' E 103°33'0 0.0
2018-Jan-11 23:45N 01°21' E 103°33'0 0.0
2018-Jan-11 23:30N 01°21' E 103°33'1 1.6
2018-Jan-11 22:59N 01°20' E 103°33'2 5.2
2018-Jan-11 22:30N 01°18' E 103°33'4 7.8
2018-Jan-11 21:59N 01°14' E 103°32'2 3.1
2018-Jan-11 21:30N 01°14' E 103°30'2 3.6
2018-Jan-11 20:57N 01°14' E 103°28'2 3.4
2018-Jan-11 20:30N 01°15' E 103°27'0 0.1
2018-Jan-11 19:42N 01°15' E 103°27'0 0.0
2018-Jan-11 19:12N 01°15' E 103°27'0 0.0
2018-Jan-11 18:48N 01°15' E 103°27'0 0.0
2018-Jan-11 18:24N 01°15' E 103°27'0 0.0
2018-Jan-11 17:33N 01°15' E 103°27'0 0.0
2018-Jan-11 17:27N 01°15' E 103°27'0 0.0
2018-Jan-11 17:00N 01°15' E 103°27'0 0.0
2018-Jan-11 15:45N 01°15' E 103°27'0 0.2
2018-Jan-11 14:45N 01°15' E 103°27'0 0.1
2018-Jan-11 14:18N 01°15' E 103°27'0 0.0
2018-Jan-11 10:15N 01°15' E 103°27'0 0.2
2018-Jan-11 09:54N 01°15' E 103°27'0 0.1
2018-Jan-11 09:30N 01°15' E 103°27'0 0.0
2018-Jan-11 08:30N 01°15' E 103°27'0 0.0
2018-Jan-11 08:00N 01°15' E 103°27'0 0.0
2018-Jan-11 07:24N 01°15' E 103°27'0 0.0
2018-Jan-11 06:54N 01°15' E 103°27'0 0.0
2018-Jan-11 06:18N 01°15' E 103°27'0 0.0
2018-Jan-11 05:54N 01°15' E 103°27'0 0.0
2018-Jan-11 05:09N 01°15' E 103°27'0 0.0
2018-Jan-11 04:57N 01°15' E 103°27'0 0.1
2018-Jan-11 04:27N 01°15' E 103°27'0 0.3
2018-Jan-11 03:57N 01°15' E 103°27'0 0.0
2018-Jan-10 17:50N 01°15' E 103°27'0 0.0
2018-Jan-10 17:26N 01°15' E 103°27'0 0.0
2018-Jan-10 16:56N 01°15' E 103°27'0 0.0
2018-Jan-10 16:23N 01°15' E 103°27'0 0.0
2018-Jan-10 15:56N 01°15' E 103°27'0 0.0
2018-Jan-10 15:26N 01°15' E 103°27'0 0.0
2018-Jan-10 14:50N 01°15' E 103°27'0 0.0
2018-Jan-10 14:29N 01°15' E 103°27'0 0.0
2018-Jan-10 13:56N 01°15' E 103°27'0 0.0
2018-Jan-10 12:50N 01°15' E 103°27'0 0.0
2018-Jan-10 12:20N 01°15' E 103°27'0 0.0
2018-Jan-10 11:56N 01°15' E 103°27'0 0.0
2018-Jan-10 11:23N 01°15' E 103°27'0 0.0
2018-Jan-10 10:53N 01°15' E 103°27'0 0.0
2018-Jan-10 10:17N 01°15' E 103°27'0 0.0
2018-Jan-10 09:56N 01°15' E 103°27'0 0.0
2018-Jan-10 09:29N 01°15' E 103°27'0 0.0
2018-Jan-10 08:44N 01°15' E 103°27'0 0.0
2018-Jan-10 08:08N 01°15' E 103°27'0 0.0
2018-Jan-10 06:35N 01°15' E 103°27'0 0.0
2018-Jan-10 06:11N 01°15' E 103°27'0 0.0
2018-Jan-10 05:59N 01°15' E 103°27'0 0.0
2018-Jan-10 03:44N 01°15' E 103°27'0 0.0
2018-Jan-10 03:20N 01°15' E 103°27'0 0.1
2018-Jan-10 02:53N 01°15' E 103°27'0 0.2
2018-Jan-10 02:14N 01°15' E 103°27'0 0.3
2018-Jan-10 01:59N 01°15' E 103°27'0 0.2
2018-Jan-10 01:14N 01°15' E 103°27'0 0.0
2018-Jan-10 00:59N 01°15' E 103°27'0 0.0
2018-Jan-10 00:29N 01°15' E 103°27'0 0.0
2018-Jan-09 23:59N 01°15' E 103°27'0 0.0
2018-Jan-09 23:23N 01°15' E 103°27'0 0.0
2018-Jan-09 22:47N 01°15' E 103°27'0 0.0
2018-Jan-09 22:02N 01°15' E 103°27'0 0.2
2018-Jan-09 21:41N 01°15' E 103°27'0 0.1
2018-Jan-09 19:23N 01°15' E 103°27'0 0.2
2018-Jan-09 18:58N 01°15' E 103°27'2 5.0
2018-Jan-09 18:29N 01°13' E 103°29'4 6.8
2018-Jan-09 17:57N 01°11' E 103°27'4 8.4
2018-Jan-09 17:28N 01°13' E 103°23'4 8.9
2018-Jan-09 17:00N 01°15' E 103°20'  

Dump ship's entire track history